Time,TemperatureF,DewpointF,PressureIn,WindDirection,WindDirectionDegrees,WindSpeedMPH,WindSpeedGustMPH,Humidity,HourlyPrecipIn,Conditions,Clouds,dailyrainin,SoftwareType,DateUTC
2013-10-21 00:06:00,40.1,38.0,30.19,SE,129,1.0,1.0,90,0.00,,,0.00,weatherlink.com 1.10,2013-10-21 04:06:00,
2013-10-21 00:21:00,39.5,37.0,30.19,SE,136,1.0,1.0,91,0.00,,,0.00,weatherlink.com 1.10,2013-10-21 04:21:00,
2013-10-21 00:36:00,39.0,37.0,30.19,SE,134,1.0,1.0,91,0.00,,,0.00,weatherlink.com 1.10,2013-10-21 04:36:00,
2013-10-21 00:51:00,38.3,36.0,30.19,SE,143,1.0,2.0,92,0.00,,,0.00,weatherlink.com 1.10,2013-10-21 04:51:00,
2013-10-21 01:06:00,38.8,37.0,30.19,SE,125,1.0,2.0,94,0.00,,,0.00,weatherlink.com 1.10,2013-10-21 05:06:00,
2013-10-21 01:21:00,38.7,37.0,30.19,SE,134,1.0,2.0,93,0.00,,,0.00,weatherlink.com 1.10,2013-10-21 05:21:00,
2013-10-21 01:36:00,38.7,37.0,30.19,SE,134,1.0,2.0,94,0.00,,,0.00,weatherlink.com 1.10,2013-10-21 05:36:00,
2013-10-21 01:51:00,38.8,37.0,30.19,SE,124,0.0,2.0,94,0.00,,,0.00,weatherlink.com 1.10,2013-10-21 05:51:00,
2013-10-21 02:06:00,39.0,38.0,30.19,SE,136,0.0,2.0,94,0.00,,,0.00,weatherlink.com 1.10,2013-10-21 06:06:00,
2013-10-21 02:21:00,40.5,39.0,30.19,SE,141,2.0,2.0,95,0.00,,,0.00,weatherlink.com 1.10,2013-10-21 06:21:00,
2013-10-21 02:36:00,40.9,39.0,30.19,SE,137,0.0,2.0,93,0.00,,,0.00,weatherlink.com 1.10,2013-10-21 06:36:00,
2013-10-21 02:51:00,40.0,38.0,30.18,SE,136,1.0,2.0,93,0.00,,,0.00,weatherlink.com 1.10,2013-10-21 06:51:00,
2013-10-21 03:06:00,40.1,38.0,30.19,SE,127,2.0,2.0,93,0.00,,,0.00,weatherlink.com 1.10,2013-10-21 07:06:00,
2013-10-21 03:21:00,40.6,39.0,30.18,ESE,106,1.0,3.0,94,0.00,,,0.00,weatherlink.com 1.10,2013-10-21 07:21:00,
2013-10-21 03:36:00,41.8,40.0,30.18,SE,125,1.0,2.0,92,0.00,,,0.00,weatherlink.com 1.10,2013-10-21 07:36:00,
2013-10-21 03:51:00,41.6,40.0,30.18,SE,125,0.0,2.0,93,0.00,,,0.00,weatherlink.com 1.10,2013-10-21 07:51:00,
2013-10-21 04:06:00,42.2,40.0,30.19,SE,143,1.0,3.0,92,0.00,,,0.00,weatherlink.com 1.10,2013-10-21 08:06:00,
2013-10-21 04:21:00,42.1,40.0,30.19,SE,134,0.0,3.0,92,0.00,,,0.00,weatherlink.com 1.10,2013-10-21 08:21:00,
2013-10-21 04:36:00,42.0,40.0,30.19,SE,139,0.0,1.0,92,0.00,,,0.00,weatherlink.com 1.10,2013-10-21 08:36:00,
2013-10-21 04:51:00,40.6,39.0,30.19,SE,134,1.0,3.0,93,0.00,,,0.00,weatherlink.com 1.10,2013-10-21 08:51:00,
2013-10-21 05:06:00,40.9,39.0,30.20,SE,136,1.0,3.0,93,0.00,,,0.00,weatherlink.com 1.10,2013-10-21 09:06:00,
2013-10-21 05:21:00,40.0,38.0,30.20,ESE,104,0.0,2.0,93,0.00,,,0.00,weatherlink.com 1.10,2013-10-21 09:21:00,
2013-10-21 05:36:00,39.7,38.0,30.21,East,91,0.0,2.0,94,0.00,,,0.00,weatherlink.com 1.10,2013-10-21 09:36:00,
2013-10-21 05:51:00,39.9,39.0,30.21,ENE,71,0.0,1.0,95,0.00,,,0.00,weatherlink.com 1.10,2013-10-21 09:51:00,
2013-10-21 06:06:00,40.4,39.0,30.21,ENE,75,0.0,2.0,94,0.00,,,0.00,weatherlink.com 1.10,2013-10-21 10:06:00,
2013-10-21 06:21:00,39.0,38.0,30.21,SE,127,1.0,2.0,94,0.00,,,0.00,weatherlink.com 1.10,2013-10-21 10:21:00,
2013-10-21 06:36:00,38.4,37.0,30.21,SE,125,1.0,1.0,95,0.00,,,0.00,weatherlink.com 1.10,2013-10-21 10:36:00,
2013-10-21 06:51:00,39.2,38.0,30.22,East,101,1.0,3.0,96,0.00,,,0.00,weatherlink.com 1.10,2013-10-21 10:51:00,
2013-10-21 07:06:00,40.3,39.0,30.21,SE,134,2.0,3.0,96,0.00,,,0.00,weatherlink.com 1.10,2013-10-21 11:06:00,
2013-10-21 07:21:00,40.9,40.0,30.21,SE,129,2.0,3.0,96,0.00,,,0.00,weatherlink.com 1.10,2013-10-21 11:21:00,
2013-10-21 07:36:00,40.9,40.0,30.21,SE,134,2.0,4.0,96,0.00,,,0.00,weatherlink.com 1.10,2013-10-21 11:36:00,
2013-10-21 07:51:00,40.9,40.0,30.21,SE,129,1.0,2.0,95,0.00,,,0.00,weatherlink.com 1.10,2013-10-21 11:51:00,
2013-10-21 08:07:00,40.9,40.0,30.21,SE,127,0.0,1.0,96,0.00,,,0.00,weatherlink.com 1.10,2013-10-21 12:07:00,
2013-10-21 08:22:00,41.1,40.0,30.21,SE,132,0.0,1.0,96,0.00,,,0.00,weatherlink.com 1.10,2013-10-21 12:22:00,
2013-10-21 08:37:00,41.0,40.0,30.22,SE,124,2.0,3.0,96,0.00,,,0.00,weatherlink.com 1.10,2013-10-21 12:37:00,
2013-10-21 08:52:00,41.5,41.0,30.23,SE,129,0.0,2.0,96,0.00,,,0.00,weatherlink.com 1.10,2013-10-21 12:52:00,
2013-10-21 09:07:00,41.7,41.0,30.22,SE,132,2.0,2.0,96,0.00,,,0.00,weatherlink.com 1.10,2013-10-21 13:07:00,
2013-10-21 09:22:00,42.7,42.0,30.22,SE,125,1.0,3.0,96,0.00,,,0.00,weatherlink.com 1.10,2013-10-21 13:22:00,
2013-10-21 09:37:00,43.5,42.0,30.23,SE,131,1.0,3.0,94,0.00,,,0.00,weatherlink.com 1.10,2013-10-21 13:37:00,
2013-10-21 09:52:00,44.4,42.0,30.23,SE,127,1.0,3.0,92,0.00,,,0.00,weatherlink.com 1.10,2013-10-21 13:52:00,
2013-10-21 10:07:00,45.5,43.0,30.22,East,87,0.0,2.0,90,0.00,,,0.00,weatherlink.com 1.10,2013-10-21 14:07:00,
2013-10-21 10:22:00,46.7,43.0,30.22,SE,129,1.0,2.0,87,0.00,,,0.00,weatherlink.com 1.10,2013-10-21 14:22:00,
2013-10-21 10:37:00,47.9,43.0,30.22,ESE,107,1.0,2.0,84,0.00,,,0.00,weatherlink.com 1.10,2013-10-21 14:37:00,
2013-10-21 10:52:00,49.2,43.0,30.21,SE,138,0.0,2.0,80,0.00,,,0.00,weatherlink.com 1.10,2013-10-21 14:52:00,
2013-10-21 11:07:00,50.6,43.0,30.21,ENE,68,2.0,2.0,74,0.00,,,0.00,weatherlink.com 1.10,2013-10-21 15:07:00,
2013-10-21 11:22:00,52.7,43.0,30.20,East,93,0.0,2.0,70,0.00,,,0.00,weatherlink.com 1.10,2013-10-21 15:22:00,
2013-10-21 11:37:00,53.6,42.0,30.21,East,84,0.0,2.0,65,0.00,,,0.00,weatherlink.com 1.10,2013-10-21 15:37:00,
2013-10-21 11:52:00,54.6,43.0,30.20,SE,129,0.0,1.0,64,0.00,,,0.00,weatherlink.com 1.10,2013-10-21 15:52:00,
2013-10-21 12:07:00,56.3,41.0,30.20,SE,141,1.0,3.0,58,0.00,,,0.00,weatherlink.com 1.10,2013-10-21 16:07:00,
2013-10-21 12:22:00,56.8,41.0,30.19,ESE,102,0.0,3.0,57,0.00,,,0.00,weatherlink.com 1.10,2013-10-21 16:22:00,
2013-10-21 12:37:00,57.1,42.0,30.19,SE,133,0.0,3.0,57,0.00,,,0.00,weatherlink.com 1.10,2013-10-21 16:37:00,
2013-10-21 12:52:00,57.2,41.0,30.18,NW,324,0.0,2.0,56,0.00,,,0.00,weatherlink.com 1.10,2013-10-21 16:52:00,
2013-10-21 13:07:00,56.5,41.0,30.17,NW,311,0.0,6.0,56,0.00,,,0.00,weatherlink.com 1.10,2013-10-21 17:07:00,
2013-10-21 13:22:00,56.7,40.0,30.16,NW,309,2.0,6.0,54,0.00,,,0.00,weatherlink.com 1.10,2013-10-21 17:22:00,
2013-10-21 13:37:00,57.1,39.0,30.16,NNW,342,0.0,3.0,52,0.00,,,0.00,weatherlink.com 1.10,2013-10-21 17:37:00,
2013-10-21 13:52:00,58.2,41.0,30.15,SSW,193,0.0,2.0,53,0.00,,,0.00,weatherlink.com 1.10,2013-10-21 17:52:00,
2013-10-21 14:08:00,58.7,37.0,30.14,West,278,0.0,3.0,45,0.00,,,0.00,weatherlink.com 1.10,2013-10-21 18:08:00,
2013-10-21 14:23:00,59.7,39.0,30.13,WSW,243,0.0,3.0,46,0.00,,,0.00,weatherlink.com 1.10,2013-10-21 18:23:00,
2013-10-21 14:38:00,60.8,37.0,30.13,SSE,154,3.0,4.0,42,0.00,,,0.00,weatherlink.com 1.10,2013-10-21 18:38:00,
2013-10-21 14:53:00,61.2,37.0,30.12,SSE,147,2.0,4.0,40,0.00,,,0.00,weatherlink.com 1.10,2013-10-21 18:53:00,
2013-10-21 15:08:00,61.0,36.0,30.11,SSE,153,3.0,4.0,39,0.00,,,0.00,weatherlink.com 1.10,2013-10-21 19:08:00,
2013-10-21 15:23:00,61.3,37.0,30.11,SE,142,4.0,4.0,41,0.00,,,0.00,weatherlink.com 1.10,2013-10-21 19:23:00,
2013-10-21 15:38:00,61.3,44.0,30.11,SE,145,3.0,4.0,54,0.00,,,0.00,weatherlink.com 1.10,2013-10-21 19:38:00,
2013-10-21 15:53:00,60.7,47.0,30.10,SSE,148,1.0,4.0,62,0.00,,,0.00,weatherlink.com 1.10,2013-10-21 19:53:00,
2013-10-21 16:08:00,59.6,46.0,30.10,SE,146,1.0,6.0,61,0.00,,,0.00,weatherlink.com 1.10,2013-10-21 20:08:00,
2013-10-21 16:23:00,58.5,47.0,30.10,SSE,153,1.0,4.0,67,0.00,,,0.00,weatherlink.com 1.10,2013-10-21 20:23:00,
2013-10-21 16:38:00,58.2,47.0,30.10,ENE,72,0.0,5.0,67,0.00,,,0.00,weatherlink.com 1.10,2013-10-21 20:38:00,
2013-10-21 16:53:00,57.7,48.0,30.10,SE,131,2.0,3.0,69,0.00,,,0.00,weatherlink.com 1.10,2013-10-21 20:53:00,
2013-10-21 17:08:00,56.5,48.0,30.09,SE,144,0.0,3.0,73,0.00,,,0.00,weatherlink.com 1.10,2013-10-21 21:08:00,
2013-10-21 17:23:00,55.9,48.0,30.09,SE,131,0.0,2.0,75,0.00,,,0.00,weatherlink.com 1.10,2013-10-21 21:23:00,
2013-10-21 17:38:00,54.9,48.0,30.10,SE,138,0.0,3.0,78,0.00,,,0.00,weatherlink.com 1.10,2013-10-21 21:38:00,
2013-10-21 17:53:00,54.1,48.0,30.11,SE,124,0.0,2.0,80,0.00,,,0.00,weatherlink.com 1.10,2013-10-21 21:53:00,
2013-10-21 18:08:00,53.5,48.0,30.10,SE,125,0.0,1.0,82,0.00,,,0.00,weatherlink.com 1.10,2013-10-21 22:08:00,
2013-10-21 18:23:00,52.8,48.0,30.11,SE,131,0.0,1.0,83,0.00,,,0.00,weatherlink.com 1.10,2013-10-21 22:23:00,
2013-10-21 18:38:00,52.3,48.0,30.11,ESE,117,0.0,2.0,84,0.00,,,0.00,weatherlink.com 1.10,2013-10-21 22:38:00,
2013-10-21 18:53:00,51.5,47.0,30.12,SE,127,0.0,3.0,85,0.00,,,0.00,weatherlink.com 1.10,2013-10-21 22:53:00,
2013-10-21 19:08:00,50.9,47.0,30.11,SE,139,1.0,3.0,87,0.00,,,0.00,weatherlink.com 1.10,2013-10-21 23:08:00,
2013-10-21 19:23:00,50.5,47.0,30.11,SE,129,3.0,3.0,88,0.00,,,0.00,weatherlink.com 1.10,2013-10-21 23:23:00,
2013-10-21 19:53:00,49.8,47.0,30.11,SE,141,1.0,3.0,90,0.00,,,0.00,weatherlink.com 1.10,2013-10-21 23:53:00,
2013-10-21 20:08:00,49.5,47.0,30.11,SE,130,0.0,3.0,90,0.00,,,0.00,weatherlink.com 1.10,2013-10-22 00:08:00,
2013-10-21 20:23:00,49.4,47.0,30.11,SE,132,1.0,2.0,91,0.00,,,0.00,weatherlink.com 1.10,2013-10-22 00:23:00,
2013-10-21 20:38:00,49.2,47.0,30.11,SE,130,0.0,2.0,91,0.00,,,0.00,weatherlink.com 1.10,2013-10-22 00:38:00,
2013-10-21 20:53:00,49.0,47.0,30.11,SE,128,0.0,1.0,91,0.00,,,0.00,weatherlink.com 1.10,2013-10-22 00:53:00,
2013-10-21 21:08:00,48.7,47.0,30.11,SE,125,0.0,1.0,92,0.00,,,0.00,weatherlink.com 1.10,2013-10-22 01:08:00,
2013-10-21 21:23:00,48.4,46.0,30.11,SE,132,0.0,1.0,92,0.00,,,0.00,weatherlink.com 1.10,2013-10-22 01:23:00,
2013-10-21 21:38:00,48.4,47.0,30.11,SE,127,0.0,1.0,93,0.00,,,0.00,weatherlink.com 1.10,2013-10-22 01:38:00,
2013-10-21 21:53:00,48.4,47.0,30.10,SE,127,1.0,1.0,93,0.00,,,0.00,weatherlink.com 1.10,2013-10-22 01:53:00,
2013-10-21 22:08:00,48.0,46.0,30.11,SE,129,0.0,2.0,92,0.00,,,0.00,weatherlink.com 1.10,2013-10-22 02:08:00,
2013-10-21 22:23:00,47.4,46.0,30.10,SE,129,1.0,2.0,93,0.00,,,0.00,weatherlink.com 1.10,2013-10-22 02:23:00,
2013-10-21 22:38:00,46.9,45.0,30.10,SE,132,0.0,2.0,94,0.00,,,0.00,weatherlink.com 1.10,2013-10-22 02:38:00,
2013-10-21 22:53:00,46.7,45.0,30.09,East,87,1.0,2.0,95,0.00,,,0.00,weatherlink.com 1.10,2013-10-22 02:53:00,
2013-10-21 23:08:00,46.7,45.0,30.09,ESE,111,0.0,3.0,95,0.00,,,0.00,weatherlink.com 1.10,2013-10-22 03:08:00,
2013-10-21 23:23:00,46.8,46.0,30.09,East,87,1.0,3.0,95,0.00,,,0.00,weatherlink.com 1.10,2013-10-22 03:23:00,
2013-10-21 23:38:00,47.1,46.0,30.09,East,85,1.0,3.0,95,0.00,,,0.00,weatherlink.com 1.10,2013-10-22 03:38:00,
2013-10-21 23:53:00,48.5,46.0,30.09,East,89,1.0,1.0,90,0.00,,,0.00,weatherlink.com 1.10,2013-10-22 03:53:00,